KEVV/EVV METAR and TAF weather

Enter ICAO airport designator
Station Type Date Time Source
KEVV METAR 2020/07/09 23:54 UTC NOAA

KEVV 092354Z 20004KT 10SM CLR 32/22 A2984 RMK AO2 SLP100 T03170217 10333 20311 56006


Station Type Date Time Source
KEVV Decoded METAR 2020/07/09 23:54 UTC NOAA

EVANSVILLE REGIONAL, IN, United States (KEVV) 38-02N 087-32W 117M
Jul 09, 2020 - 07:54 PM EDT / 2020.07.09 2354 UTC
Wind: from the SSW (200 degrees) at 5 MPH (4 KT):0
Visibility: 10 mile(s):0
Sky conditions: clear
Temperature: 89.1 F (31.7 C)
Heat index: 95.2 F (35.1 C):1
Dew Point: 71.1 F (21.7 C)
Relative Humidity: 55%
Pressure (altimeter): 29.84 in. Hg (1010 hPa)
Pressure tendency: 0.02 inches (0.6 hPa) lower than three hours ago
ob: KEVV 092354Z 20004KT 10SM CLR 32/22 A2984 RMK AO2 SLP100 T03170217 10333 20311 56006
cycle: 0

Station Type Date Time Source
KEVV TAF 2020/07/09 18:22 UTC NOAA

TAF KEVV 091720Z 0918/1018 19005KT P6SM VCTS SCT050CB
TEMPO 0918/0919 6SM -SHRA BKN040
FM100000 VRB04KT P6SM BKN250
FM101400 30010KT P6SM SCT030

Example: see airport list